Time;durP1;ratioP1;P1;durP2;ratioP2;P2;SDS_P1;SDS_P2;PMS_P1;PMS_P2;Temp;Humidity;BMP_temperature;BMP_pressure;BME280_temperature;BME280_humidity;BME280_pressure;Samples;Min_cycle;Max_cycle;Signal;HPM_P1;HPM_P2
2022/10/23 00:01:38;;;;;;;10.63;8.63;;;18.90;99.90;;;;;;4992999;28;20038;-70
2022/10/23 00:04:12;;;;;;;10.02;7.65;;;18.80;99.90;;;;;;5010233;28;20454;-69
2022/10/23 00:06:38;;;;;;;15.40;8.00;;;18.80;99.90;;;;;;4992307;28;20377;-70
2022/10/23 00:09:06;;;;;;;11.90;7.78;;;18.80;99.90;;;;;;4992175;28;20038;-69
2022/10/23 00:11:34;;;;;;;10.73;7.97;;;18.80;99.90;;;;;;4992061;28;20026;-69
2022/10/23 00:14:02;;;;;;;13.88;7.72;;;18.80;99.90;;;;;;4992259;28;20036;-70
2022/10/23 00:16:29;;;;;;;13.18;8.07;;;18.80;99.90;;;;;;5009948;28;20097;-67
2022/10/23 00:18:55;;;;;;;13.43;7.80;;;18.80;99.90;;;;;;5010009;28;20485;-67
2022/10/23 00:21:22;;;;;;;10.70;7.68;;;18.80;99.90;;;;;;5009916;28;20022;-68
2022/10/23 00:23:49;;;;;;;10.40;8.10;;;18.80;99.90;;;;;;5010739;28;20085;-65
2022/10/23 00:26:16;;;;;;;13.75;7.85;;;18.80;99.90;;;;;;5000546;28;20434;-69
2022/10/23 00:28:45;;;;;;;10.43;7.90;;;18.80;99.90;;;;;;5011658;28;20116;-67
2022/10/23 00:31:12;;;;;;;10.27;7.90;;;18.80;99.90;;;;;;5013822;28;20022;-68
2022/10/23 00:33:39;;;;;;;10.50;7.95;;;18.80;99.90;;;;;;5013282;28;20034;-69
2022/10/23 00:36:08;;;;;;;11.52;7.88;;;18.70;99.90;;;;;;4996308;28;20041;-67
2022/10/23 00:38:35;;;;;;;14.90;7.88;;;18.70;99.90;;;;;;5013625;28;20022;-68
2022/10/23 00:41:02;;;;;;;10.95;7.60;;;18.70;99.90;;;;;;5013193;28;20058;-67
2022/10/23 00:43:30;;;;;;;9.60;7.38;;;18.70;99.90;;;;;;5013364;28;20026;-68
2022/10/23 00:45:58;;;;;;;11.20;7.60;;;18.70;99.90;;;;;;5013455;28;20062;-69
2022/10/23 00:48:28;;;;;;;12.27;8.15;;;18.70;99.90;;;;;;4995978;28;20069;-68
2022/10/23 00:50:56;;;;;;;12.80;8.40;;;18.70;99.90;;;;;;5013510;28;20052;-68
2022/10/23 00:53:22;;;;;;;12.77;8.73;;;18.70;99.90;;;;;;5013364;28;20428;-68
2022/10/23 00:55:51;;;;;;;16.33;8.43;;;18.70;99.90;;;;;;5013578;28;20097;-67
2022/10/23 00:58:20;;;;;;;10.07;7.65;;;18.70;99.90;;;;;;5013384;28;20022;-68
2022/10/23 01:00:52;;;;;;;12.90;7.88;;;18.80;99.90;;;;;;4995443;28;20041;-67
2022/10/23 01:03:22;;;;;;;9.82;7.30;;;18.80;99.90;;;;;;5013068;28;20018;-68
2022/10/23 01:06:00;;;;;;;11.18;7.25;;;18.80;99.90;;;;;;5013410;28;20029;-67
2022/10/23 01:08:48;;;;;;;12.57;8.15;;;18.80;99.90;;;;;;5013071;28;20057;-68
2022/10/23 01:12:00;;;;;;;13.25;7.53;;;18.70;99.90;;;;;;5013343;28;20026;-67
2022/10/23 01:14:38;;;;;;;10.88;7.75;;;18.70;99.90;;;;;;4936338;29;20071;-68
2022/10/23 01:17:47;;;;;;;11.55;8.05;;;18.70;99.90;;;;;;4952641;29;20038;-67
2022/10/23 01:20:30;;;;;;;14.52;7.18;;;18.70;99.90;;;;;;4933296;29;20036;-66
2022/10/23 01:23:31;;;;;;;11.25;7.32;;;18.70;99.90;;;;;;4933597;29;20036;-68
2022/10/23 01:26:15;;;;;;;10.27;8.02;;;18.70;99.90;;;;;;4933581;29;20051;-68
2022/10/23 01:29:14;;;;;;;9.65;7.63;;;18.70;99.90;;;;;;4933302;29;20460;-68
2022/10/23 01:31:48;;;;;;;11.88;7.90;;;18.70;99.90;;;;;;4931829;29;20039;-68
2022/10/23 01:34:21;;;;;;;11.30;7.78;;;18.80;99.90;;;;;;4916990;29;20125;-67
2022/10/23 01:36:49;;;;;;;12.35;7.25;;;18.80;99.90;;;;;;4932916;29;20103;-68
2022/10/23 01:39:39;;;;;;;11.98;7.75;;;18.80;99.90;;;;;;4932448;29;20099;-68
2022/10/23 01:42:14;;;;;;;9.45;7.95;;;18.70;99.90;;;;;;4932821;29;20068;-68
2022/10/23 01:44:53;;;;;;;11.63;8.02;;;18.70;99.90;;;;;;4943709;28;20042;-67
2022/10/23 01:47:43;;;;;;;13.50;7.75;;;18.70;99.90;;;;;;4970880;28;20054;-68
2022/10/23 01:50:11;;;;;;;11.43;7.65;;;18.70;99.90;;;;;;4971136;28;20375;-67
2022/10/23 01:52:38;;;;;;;12.70;7.88;;;18.70;99.90;;;;;;4971145;28;20023;-68
2022/10/23 01:55:07;;;;;;;11.43;7.50;;;18.70;99.90;;;;;;4966340;28;20073;-68
2022/10/23 01:57:35;;;;;;;9.75;7.18;;;18.60;99.90;;;;;;5011990;28;20182;-67
2022/10/23 02:00:08;;;;;;;10.50;7.68;;;18.60;99.90;;;;;;5012075;28;20505;-67
2022/10/23 02:02:38;;;;;;;10.68;7.78;;;18.60;99.90;;;;;;5011694;28;20033;-67
2022/10/23 02:05:13;;;;;;;10.25;7.60;;;18.60;99.90;;;;;;5011976;28;20128;-68
2022/10/23 02:07:40;;;;;;;11.32;7.32;;;18.60;99.90;;;;;;5012226;28;20018;-66
2022/10/23 02:10:09;;;;;;;10.40;7.57;;;18.60;99.90;;;;;;5011759;28;20034;-67
2022/10/23 02:13:08;;;;;;;11.32;7.82;;;18.60;99.90;;;;;;5011818;28;20327;-68
2022/10/23 02:15:49;;;;;;;13.70;7.95;;;18.50;99.90;;;;;;5006269;28;20077;-68
2022/10/23 02:18:26;;;;;;;11.40;7.63;;;18.60;99.90;;;;;;5012031;28;20382;-68
2022/10/23 02:20:59;;;;;;;11.25;7.55;;;18.50;99.90;;;;;;5011636;28;20083;-68
2022/10/23 02:23:32;;;;;;;13.82;8.63;;;18.60;99.90;;;;;;5011851;28;20044;-68
2022/10/23 02:26:39;;;;;;;9.48;7.22;;;18.60;99.90;;;;;;5011627;28;20033;-68
2022/10/23 02:29:28;;;;;;;13.63;7.95;;;18.60;99.90;;;;;;5003524;28;20045;-68
2022/10/23 02:31:54;;;;;;;12.75;8.13;;;18.60;99.90;;;;;;5011853;28;20101;-68
2022/10/23 02:34:22;;;;;;;11.40;7.90;;;18.60;99.90;;;;;;4993766;28;20029;-68
2022/10/23 02:36:48;;;;;;;11.05;7.65;;;18.50;99.90;;;;;;5011408;28;20030;-69
2022/10/23 02:39:15;;;;;;;10.02;7.60;;;18.60;99.90;;;;;;5011191;28;20099;-68
2022/10/23 02:42:06;;;;;;;12.63;7.72;;;18.60;99.90;;;;;;5011667;28;20419;-68
2022/10/23 02:44:54;;;;;;;11.15;7.32;;;18.50;99.90;;;;;;5011404;28;20041;-68
2022/10/23 02:47:30;;;;;;;16.38;8.13;;;18.50;99.90;;;;;;5011154;28;20034;-68
2022/10/23 02:50:07;;;;;;;10.75;7.50;;;18.50;99.90;;;;;;5011567;28;20038;-67
2022/10/23 02:52:55;;;;;;;9.80;7.35;;;18.50;99.90;;;;;;5011483;28;20109;-66
2022/10/23 02:55:53;;;;;;;11.70;8.30;;;18.50;99.90;;;;;;5011463;28;20217;-68
2022/10/23 02:58:42;;;;;;;9.48;6.88;;;18.50;99.90;;;;;;5011560;28;20029;-68
2022/10/23 03:01:32;;;;;;;10.32;7.70;;;18.40;99.90;;;;;;4993003;28;20026;-68
2022/10/23 03:04:01;;;;;;;11.68;7.57;;;18.40;99.90;;;;;;5008348;28;20117;-68
2022/10/23 03:06:27;;;;;;;11.40;7.53;;;18.40;99.90;;;;;;5010965;28;20463;-68
2022/10/23 03:09:06;;;;;;;13.60;7.85;;;18.40;99.90;;;;;;5010934;28;20026;-67
2022/10/23 03:11:34;;;;;;;10.52;7.63;;;18.40;99.90;;;;;;5010990;28;20378;-68
2022/10/23 03:14:01;;;;;;;12.90;7.40;;;18.40;99.90;;;;;;4977198;28;20052;-68
2022/10/23 03:16:27;;;;;;;10.32;7.65;;;18.40;99.90;;;;;;5011091;28;20136;-68
2022/10/23 03:18:54;;;;;;;12.98;7.40;;;18.40;99.90;;;;;;4992851;28;20030;-68
2022/10/23 03:21:20;;;;;;;11.77;7.72;;;18.50;99.90;;;;;;5010686;28;20026;-67
2022/10/23 03:23:47;;;;;;;11.15;7.88;;;18.40;99.90;;;;;;5010622;28;20040;-68
2022/10/23 03:26:14;;;;;;;10.02;7.57;;;18.40;99.90;;;;;;5010623;28;20033;-67
2022/10/23 03:28:40;;;;;;;9.70;7.63;;;18.40;99.90;;;;;;5010884;28;20034;-68
2022/10/23 03:31:07;;;;;;;11.23;8.05;;;18.40;99.90;;;;;;4976629;28;20210;-68
2022/10/23 03:33:33;;;;;;;13.32;8.57;;;18.30;99.90;;;;;;5010357;28;20109;-67
2022/10/23 03:36:01;;;;;;;12.35;8.43;;;18.30;99.90;;;;;;5010585;28;20026;-67
2022/10/23 03:38:27;;;;;;;10.93;8.50;;;18.30;99.90;;;;;;4992602;28;20068;-67
2022/10/23 03:40:53;;;;;;;13.82;8.90;;;18.30;99.90;;;;;;5010547;28;20034;-68
2022/10/23 03:43:19;;;;;;;12.98;8.60;;;18.30;99.90;;;;;;4992612;28;20411;-68
2022/10/23 03:45:45;;;;;;;10.68;8.25;;;18.20;99.90;;;;;;5010913;28;20034;-67
2022/10/23 03:48:11;;;;;;;13.93;9.10;;;18.30;99.90;;;;;;5010147;28;20038;-68
2022/10/23 03:50:37;;;;;;;13.68;8.98;;;18.20;99.90;;;;;;5010291;28;20085;-67
2022/10/23 03:53:03;;;;;;;13.68;9.50;;;18.20;99.90;;;;;;5010277;28;20171;-67
2022/10/23 03:55:32;;;;;;;12.03;8.87;;;18.20;99.90;;;;;;5010310;28;20112;-68
2022/10/23 03:57:59;;;;;;;11.57;8.88;;;18.20;99.90;;;;;;5010430;28;20272;-68
2022/10/23 04:00:25;;;;;;;14.73;8.85;;;18.20;99.90;;;;;;5010735;28;20445;-67
2022/10/23 04:02:52;;;;;;;12.32;8.98;;;18.20;99.90;;;;;;5010442;28;20087;-68
2022/10/23 04:05:18;;;;;;;12.63;8.82;;;18.20;99.90;;;;;;5013672;28;20046;-67
2022/10/23 04:07:44;;;;;;;15.80;8.95;;;18.20;99.90;;;;;;4996537;28;20025;-68
2022/10/23 04:10:11;;;;;;;15.48;9.18;;;18.20;99.90;;;;;;5014184;28;20046;-68
2022/10/23 04:12:39;;;;;;;13.02;9.32;;;18.10;99.90;;;;;;5014528;28;20153;-67
2022/10/23 04:15:05;;;;;;;14.20;8.88;;;18.10;99.90;;;;;;5014115;28;20121;-68
2022/10/23 04:17:32;;;;;;;12.77;9.30;;;18.10;99.90;;;;;;4996460;28;20018;-68
2022/10/23 04:19:58;;;;;;;12.30;8.70;;;18.10;99.90;;;;;;5014022;28;20048;-68
2022/10/23 04:22:26;;;;;;;14.82;8.45;;;18.20;99.90;;;;;;4996220;28;20028;-68
2022/10/23 04:24:57;;;;;;;12.70;8.57;;;18.20;99.90;;;;;;5014190;28;20038;-67
2022/10/23 04:27:23;;;;;;;11.60;8.50;;;18.20;99.90;;;;;;5014317;28;20029;-67
2022/10/23 04:29:52;;;;;;;11.32;8.32;;;18.20;99.90;;;;;;5013789;28;20042;-68
2022/10/23 04:32:18;;;;;;;10.40;8.30;;;18.20;99.90;;;;;;4995967;28;20114;-67
2022/10/23 04:34:44;;;;;;;12.00;8.20;;;18.20;99.90;;;;;;5013835;28;20061;-67
2022/10/23 04:37:12;;;;;;;13.65;8.88;;;18.30;99.90;;;;;;4995983;28;20026;-68
2022/10/23 04:39:38;;;;;;;11.98;8.10;;;18.30;99.90;;;;;;4996012;28;20549;-68
2022/10/23 04:42:04;;;;;;;12.95;8.57;;;18.30;99.90;;;;;;5014031;28;20033;-67
2022/10/23 04:44:31;;;;;;;12.25;8.30;;;18.30;99.90;;;;;;5014025;28;20041;-65
2022/10/23 04:46:57;;;;;;;;;;;18.30;99.90;;;;;;5021609;28;20014;-68
2022/10/23 04:49:23;;;;;;;12.93;9.30;;;18.20;99.90;;;;;;5006153;28;19916;-67
2022/10/23 04:51:50;;;;;;;11.13;8.07;;;18.20;99.90;;;;;;5022369;28;20018;-64
2022/10/23 04:54:16;;;;;;;12.30;8.02;;;18.20;99.90;;;;;;5022625;28;20091;-68
2022/10/23 04:56:42;;;;;;;12.70;8.70;;;18.20;99.90;;;;;;5023852;28;20101;-68
2022/10/23 04:59:11;;;;;;;10.02;8.15;;;18.30;99.90;;;;;;5015948;28;20026;-67
2022/10/23 05:01:37;;;;;;;11.93;7.97;;;18.30;99.90;;;;;;5002262;28;20104;-65
2022/10/23 05:04:03;;;;;;;11.20;8.32;;;18.30;99.90;;;;;;5032584;28;20025;-67
2022/10/23 05:06:29;;;;;;;10.05;7.88;;;18.20;99.90;;;;;;5030096;28;20048;-68
2022/10/23 05:08:57;;;;;;;12.38;8.52;;;18.20;99.90;;;;;;5025046;28;20129;-65
2022/10/23 05:11:24;;;;;;;12.27;8.23;;;18.10;99.90;;;;;;5025176;28;20106;-71
2022/10/23 05:13:53;;;;;;;;;;;18.20;99.90;;;;;;5025129;28;20033;-67
2022/10/23 05:16:45;;;;;;;10.98;7.60;;;18.20;99.90;;;;;;5012901;28;20303;-68
2022/10/23 05:19:18;;;;;;;11.43;8.10;;;18.10;99.90;;;;;;5012950;28;20026;-67
2022/10/23 05:21:45;;;;;;;14.73;8.38;;;18.10;99.90;;;;;;5013354;28;20033;-67
2022/10/23 05:24:13;;;;;;;12.30;8.07;;;18.20;99.90;;;;;;5013085;28;20061;-67
2022/10/23 05:26:39;;;;;;;12.57;8.38;;;18.20;99.90;;;;;;5013381;28;20498;-68
2022/10/23 05:29:06;;;;;;;11.63;8.52;;;18.10;99.90;;;;;;5013199;28;20030;-67
2022/10/23 05:31:35;;;;;;;11.82;8.57;;;18.20;99.90;;;;;;5012942;28;20022;-68
2022/10/23 05:34:01;;;;;;;12.43;8.30;;;18.20;99.90;;;;;;5012582;28;20539;-67
2022/10/23 05:36:28;;;;;;;12.90;8.82;;;18.20;99.90;;;;;;4994798;28;20029;-68
2022/10/23 05:38:55;;;;;;;12.27;8.00;;;18.20;99.90;;;;;;5012529;28;20442;-67
2022/10/23 05:41:22;;;;;;;13.00;8.00;;;18.30;99.90;;;;;;5012803;28;20022;-68
2022/10/23 05:43:49;;;;;;;12.05;7.85;;;18.30;99.90;;;;;;5012330;28;20117;-67
2022/10/23 05:46:15;;;;;;;12.48;7.50;;;18.40;99.90;;;;;;4994443;28;20061;-67
2022/10/23 05:48:43;;;;;;;10.85;7.25;;;18.40;99.90;;;;;;5011759;28;20355;-68
2022/10/23 05:51:11;;;;;;;11.55;7.78;;;18.50;99.90;;;;;;5010573;28;20501;-67
2022/10/23 05:53:41;;;;;;;11.82;6.88;;;18.80;99.90;;;;;;5012334;28;20167;-67
2022/10/23 05:56:08;;;;;;;11.68;7.63;;;19.30;99.90;;;;;;4994510;28;20076;-67
2022/10/23 05:58:34;;;;;;;9.68;6.43;;;20.00;99.90;;;;;;4994080;28;20120;-67
2022/10/23 06:01:08;;;;;;;9.52;5.95;;;20.50;99.90;;;;;;5012204;28;20041;-67
2022/10/23 06:03:35;;;;;;;9.60;5.95;;;21.10;99.90;;;;;;5012050;28;20106;-68
2022/10/23 06:06:02;;;;;;;7.97;5.78;;;21.60;99.90;;;;;;5011955;28;20029;-68
2022/10/23 06:08:29;;;;;;;8.52;5.85;;;22.10;99.90;;;;;;5011887;28;20037;-69
2022/10/23 06:10:55;;;;;;;9.18;5.60;;;22.50;99.90;;;;;;5011868;28;20052;-68
2022/10/23 06:13:21;;;;;;;7.80;4.80;;;22.90;99.90;;;;;;4994199;28;20100;-69
2022/10/23 06:15:48;;;;;;;8.45;5.20;;;23.30;99.90;;;;;;5011976;28;20081;-68
2022/10/23 06:18:15;;;;;;;8.05;5.60;;;23.70;99.90;;;;;;5011958;28;20034;-68
2022/10/23 06:20:41;;;;;;;6.35;4.63;;;23.80;99.90;;;;;;5012020;28;20080;-69
2022/10/23 06:23:07;;;;;;;6.63;4.70;;;23.80;99.90;;;;;;5012251;28;20022;-68
2022/10/23 06:25:33;;;;;;;6.95;4.63;;;24.10;99.90;;;;;;5011790;28;20037;-68
2022/10/23 06:27:59;;;;;;;6.03;4.50;;;24.40;99.90;;;;;;5011728;28;20557;-68
2022/10/23 06:30:25;;;;;;;7.20;4.45;;;25.00;99.90;;;;;;4994016;28;20112;-66
2022/10/23 06:32:53;;;;;;;6.85;4.40;;;25.70;99.90;;;;;;5011767;28;20474;-68
2022/10/23 06:35:19;;;;;;;9.82;4.18;;;25.90;99.90;;;;;;5012192;28;20018;-68
2022/10/23 06:37:45;;;;;;;11.30;5.20;;;26.00;99.90;;;;;;5011768;28;20080;-68
2022/10/23 06:40:11;;;;;;;9.00;4.22;;;26.20;99.90;;;;;;5012057;28;20022;-68
2022/10/23 06:42:37;;;;;;;7.35;4.43;;;26.10;99.90;;;;;;5011807;28;20492;-68
2022/10/23 06:45:07;;;;;;;7.00;4.80;;;26.10;99.90;;;;;;5011655;28;20398;-68
2022/10/23 06:47:34;;;;;;;7.63;4.07;;;26.60;99.90;;;;;;5011348;28;20046;-68
2022/10/23 06:50:01;;;;;;;6.85;4.20;;;26.80;99.90;;;;;;5011776;28;20120;-69
2022/10/23 06:52:30;;;;;;;7.65;4.30;;;26.50;99.90;;;;;;5011694;28;20030;-68
2022/10/23 06:54:56;;;;;;;7.07;3.92;;;26.50;99.90;;;;;;5011394;28;20037;-68
2022/10/23 06:57:22;;;;;;;5.10;4.07;;;26.90;99.90;;;;;;5011928;28;20324;-70
2022/10/23 06:59:49;;;;;;;7.05;3.95;;;27.00;99.90;;;;;;4994124;28;20026;-69
2022/10/23 07:02:17;;;;;;;6.80;3.70;;;27.20;99.90;;;;;;4993417;28;20026;-69
2022/10/23 07:04:43;;;;;;;5.55;3.63;;;27.60;99.90;;;;;;5011388;28;20030;-68
2022/10/23 07:07:12;;;;;;;5.60;3.90;;;27.60;99.90;;;;;;5011111;28;20042;-70
2022/10/23 07:09:38;;;;;;;7.35;4.30;;;28.00;99.90;;;;;;5011426;28;20026;-69
2022/10/23 07:12:05;;;;;;;5.68;3.78;;;28.10;99.90;;;;;;5010716;28;20026;-68
2022/10/23 07:14:31;;;;;;;;;;;28.10;99.90;;;;;;5011045;28;20033;-68
2022/10/23 07:16:57;;;;;;;7.85;4.00;;;28.20;99.90;;;;;;5010657;28;20004;-69
2022/10/23 07:19:34;;;;;;;5.18;3.53;;;28.20;99.90;;;;;;5010812;28;20164;-69
2022/10/23 07:22:00;;;;;;;4.85;3.50;;;28.50;99.90;;;;;;5010869;28;20343;-69
2022/10/23 07:24:27;;;;;;;6.38;4.22;;;28.30;99.90;;;;;;5010675;28;20546;-68
2022/10/23 07:26:54;;;;;;;8.15;4.00;;;28.00;99.90;;;;;;5010642;28;20056;-68
2022/10/23 07:29:21;;;;;;;5.80;4.47;;;27.50;99.90;;;;;;5011196;28;20029;-69
2022/10/23 07:31:48;;;;;;;7.80;4.10;;;27.10;99.90;;;;;;5011206;28;20030;-68
2022/10/23 07:34:14;;;;;;;7.10;4.57;;;26.70;99.90;;;;;;5011060;28;20100;-68
2022/10/23 07:36:41;;;;;;;7.22;4.13;;;26.40;99.90;;;;;;5011434;28;20051;-68
2022/10/23 07:39:10;;;;;;;8.45;4.60;;;26.10;99.90;;;;;;5010163;28;20026;-68
2022/10/23 07:41:36;;;;;;;7.50;4.40;;;25.90;99.90;;;;;;4992988;28;20029;-68
2022/10/23 07:44:03;;;;;;;8.25;4.85;;;25.50;99.90;;;;;;4992813;28;20072;-69
2022/10/23 07:46:30;;;;;;;7.47;4.40;;;25.10;99.90;;;;;;4992909;28;20435;-68
2022/10/23 07:48:57;;;;;;;7.80;4.80;;;24.80;99.90;;;;;;5010413;28;20057;-69
2022/10/23 07:51:23;;;;;;;7.97;4.63;;;24.60;99.90;;;;;;5010892;28;20452;-68
2022/10/23 07:53:51;;;;;;;8.18;4.63;;;24.40;99.90;;;;;;5010716;28;20423;-68
2022/10/23 07:56:22;;;;;;;9.35;4.72;;;24.30;99.90;;;;;;5010079;28;20451;-68
2022/10/23 07:58:52;;;;;;;7.63;4.63;;;24.40;99.90;;;;;;5009997;28;20030;-69
2022/10/23 08:01:39;;;;;;;5.95;4.43;;;24.40;99.90;;;;;;5009820;28;20022;-70
2022/10/23 08:04:05;;;;;;;7.90;4.00;;;24.40;99.90;;;;;;4992350;28;20047;-68
2022/10/23 08:06:34;;;;;;;6.53;3.83;;;24.60;99.90;;;;;;5009934;28;20038;-67
2022/10/23 08:09:00;;;;;;;6.95;4.63;;;24.90;99.90;;;;;;5009973;28;20121;-69
2022/10/23 08:11:29;;;;;;;6.95;4.10;;;25.20;99.90;;;;;;5010094;28;20049;-68
2022/10/23 08:13:57;;;;;;;7.43;4.28;;;25.20;99.90;;;;;;5009693;28;20441;-69
2022/10/23 08:16:24;;;;;;;5.65;3.42;;;25.40;99.90;;;;;;5009854;28;20489;-70
2022/10/23 08:18:50;;;;;;;6.90;4.20;;;25.50;99.90;;;;;;5010590;28;20030;-68
2022/10/23 08:21:17;;;;;;;6.80;3.55;;;25.60;99.90;;;;;;5010928;28;20030;-69
2022/10/23 08:23:43;;;;;;;7.57;4.25;;;25.60;99.90;;;;;;4992401;28;20516;-69
2022/10/23 08:26:10;;;;;;;6.07;4.10;;;25.90;99.90;;;;;;5010627;28;20167;-69
2022/10/23 08:28:37;;;;;;;5.85;4.00;;;26.00;99.90;;;;;;5010513;28;20026;-67
2022/10/23 08:31:14;;;;;;;8.98;3.95;;;26.20;99.90;;;;;;5010572;28;20045;-68
2022/10/23 08:33:42;;;;;;;8.48;3.67;;;26.30;99.90;;;;;;5010655;28;20106;-70
2022/10/23 08:36:17;;;;;;;7.88;3.88;;;26.20;99.90;;;;;;5010703;28;20048;-69
2022/10/23 08:38:43;;;;;;;6.80;4.20;;;26.10;99.90;;;;;;4992543;28;20080;-69
2022/10/23 08:41:39;;;;;;;6.90;3.67;;;26.20;99.90;;;;;;5010810;28;20029;-68
2022/10/23 08:44:28;;;;;;;5.70;3.42;;;26.20;99.90;;;;;;5010652;28;20077;-70
2022/10/23 08:47:38;;;;;;;6.60;4.10;;;26.10;99.90;;;;;;5002005;28;20366;-69
2022/10/23 08:50:24;;;;;;;7.30;3.75;;;25.80;99.90;;;;;;4971007;28;20102;-70
2022/10/23 08:53:04;;;;;;;;;;;26.00;99.90;;;;;;5013629;28;20092;-69
2022/10/23 08:55:36;;;;;;;9.40;4.25;;;26.20;99.90;;;;;;5013696;28;20010;-70
2022/10/23 08:58:14;;;;;;;8.05;4.18;;;26.40;99.90;;;;;;4995803;28;20029;-69
2022/10/23 09:00:42;;;;;;;7.05;4.65;;;26.40;99.90;;;;;;5014008;28;20061;-68
2022/10/23 09:03:11;;;;;;;8.15;4.78;;;26.40;99.90;;;;;;5013504;28;20029;-68
2022/10/23 09:06:11;;;;;;;10.02;5.63;;;26.50;99.90;;;;;;4995432;28;20504;-68
2022/10/23 09:08:50;;;;;;;8.45;4.82;;;26.30;99.90;;;;;;5013665;28;20065;-69
2022/10/23 09:11:50;;;;;;;6.90;3.85;;;26.30;99.90;;;;;;5013537;28;20030;-69
2022/10/23 09:14:38;;;;;;;6.85;4.20;;;26.50;99.90;;;;;;4995580;28;20179;-68
2022/10/23 09:17:15;;;;;;;6.80;3.67;;;26.60;99.90;;;;;;5013277;28;20352;-70
2022/10/23 09:19:44;;;;;;;8.88;5.40;;;26.50;99.90;;;;;;5013156;28;20049;-70
2022/10/23 09:22:11;;;;;;;7.45;4.10;;;26.50;99.90;;;;;;5013392;28;20107;-72
2022/10/23 09:24:42;;;;;;;10.25;3.70;;;26.60;99.90;;;;;;5012863;28;20172;-72
2022/10/23 09:27:16;;;;;;;9.30;4.25;;;26.60;99.90;;;;;;5013306;28;20109;-72
2022/10/23 09:29:51;;;;;;;5.95;3.65;;;26.50;99.90;;;;;;5013367;28;20036;-69
2022/10/23 09:32:18;;;;;;;5.88;3.80;;;26.40;99.90;;;;;;5013518;28;20033;-68
2022/10/23 09:34:54;;;;;;;6.20;3.40;;;26.40;99.90;;;;;;5013264;28;20044;-67
2022/10/23 09:37:26;;;;;;;5.88;3.33;;;26.30;99.90;;;;;;5013285;28;20209;-71
2022/10/23 09:40:23;;;;;;;7.00;3.38;;;26.20;99.90;;;;;;5013303;28;20022;-72
2022/10/23 09:42:52;;;;;;;7.88;3.90;;;25.90;99.90;;;;;;5012909;28;20128;-72
2022/10/23 09:45:28;;;;;;;6.88;3.67;;;26.00;99.90;;;;;;5012937;28;20386;-73
2022/10/23 09:48:15;;;;;;;6.70;3.95;;;26.10;99.90;;;;;;5012880;28;20053;-72
2022/10/23 09:50:53;;;;;;;6.82;3.72;;;26.00;99.90;;;;;;5013518;28;20083;-73
2022/10/23 09:53:34;;;;;;;6.47;3.50;;;25.90;99.90;;;;;;5011832;28;20474;-72
2022/10/23 09:56:24;;;;;;;8.60;3.90;;;26.00;99.90;;;;;;5013088;28;20026;-72
2022/10/23 09:59:02;;;;;;;7.72;3.80;;;26.20;99.90;;;;;;4994856;28;20052;-73
2022/10/23 10:01:37;;;;;;;7.22;3.25;;;26.00;99.90;;;;;;5012364;28;20084;-73
2022/10/23 10:04:03;;;;;;;8.27;3.40;;;26.10;99.90;;;;;;4995217;28;20060;-72
2022/10/23 10:06:31;;;;;;;8.05;3.70;;;26.10;99.90;;;;;;5012859;28;20042;-72
2022/10/23 10:09:04;;;;;;;5.93;3.90;;;26.00;99.90;;;;;;5012753;28;20033;-74
2022/10/23 10:11:49;;;;;;;6.93;4.05;;;26.10;99.90;;;;;;5012549;28;20465;-72
2022/10/23 10:14:46;;;;;;;8.38;3.80;;;26.30;99.90;;;;;;5012481;28;20099;-71
2022/10/23 10:17:18;;;;;;;6.60;4.15;;;26.40;99.90;;;;;;5012042;28;20084;-72
2022/10/23 10:19:55;;;;;;;6.22;4.13;;;26.40;99.90;;;;;;5012240;28;20037;-76
2022/10/23 10:22:24;;;;;;;11.20;4.25;;;26.30;99.90;;;;;;4994440;28;20446;-74
2022/10/23 10:25:08;;;;;;;5.32;3.60;;;26.20;99.90;;;;;;5012100;28;20038;-74
2022/10/23 10:28:06;;;;;;;6.47;3.42;;;26.40;99.90;;;;;;4994053;28;20044;-79
2022/10/23 10:31:11;;;;;;;10.05;3.55;;;26.40;99.90;;;;;;5012707;28;20032;-72
2022/10/23 10:33:54;;;;;;;6.03;3.72;;;26.50;99.90;;;;;;5004397;28;20147;-73
2022/10/23 10:36:51;;;;;;;8.00;3.65;;;26.60;99.90;;;;;;5012168;28;20394;-71
2022/10/23 10:40:01;;;;;;;7.53;3.97;;;26.60;99.90;;;;;;4994255;28;20030;-72
2022/10/23 10:42:54;;;;;;;7.80;3.90;;;26.70;99.90;;;;;;5012153;28;20041;-75
2022/10/23 10:45:37;;;;;;;7.30;3.72;;;26.60;99.90;;;;;;5011735;28;20037;-72
2022/10/23 10:48:25;;;;;;;5.47;3.60;;;26.60;99.90;;;;;;5011650;28;20429;-72
2022/10/23 10:50:59;;;;;;;6.10;3.70;;;26.60;99.90;;;;;;5012084;28;20437;-72
2022/10/23 10:53:51;;;;;;;9.60;3.47;;;26.60;99.90;;;;;;5011613;28;20042;-73
2022/10/23 10:56:21;;;;;;;6.30;3.45;;;26.50;99.90;;;;;;5011757;28;20492;-73
2022/10/23 10:59:04;;;;;;;6.80;3.75;;;26.60;99.90;;;;;;4993694;28;20096;-69
2022/10/23 11:01:40;;;;;;;8.02;3.92;;;26.60;99.90;;;;;;5012297;28;20029;-69
2022/10/23 11:04:25;;;;;;;7.35;3.58;;;26.50;99.90;;;;;;5011674;28;20108;-69
2022/10/23 11:06:54;;;;;;;5.55;3.85;;;26.60;99.90;;;;;;5011949;28;20037;-68
2022/10/23 11:09:26;;;;;;;4.97;3.13;;;26.70;99.90;;;;;;5011176;28;20145;-68
2022/10/23 11:11:53;;;;;;;6.65;3.58;;;26.40;99.90;;;;;;5011584;28;20037;-71
2022/10/23 11:14:32;;;;;;;6.03;3.45;;;26.50;99.90;;;;;;4993710;28;20022;-69
2022/10/23 11:17:01;;;;;;;5.88;4.07;;;26.70;99.90;;;;;;5015521;28;20460;-68
2022/10/23 11:19:45;;;;;;;6.60;3.97;;;26.50;99.90;;;;;;5027748;28;20125;-69
2022/10/23 11:22:42;;;;;;;8.90;3.90;;;26.40;99.90;;;;;;5015872;28;20121;-66
2022/10/23 11:25:46;;;;;;;6.85;3.72;;;26.60;99.90;;;;;;5011554;28;20061;-70
2022/10/23 11:28:33;;;;;;;7.45;3.67;;;26.80;99.90;;;;;;5013875;28;20034;-67
2022/10/23 11:31:22;;;;;;;8.32;4.20;;;27.00;99.90;;;;;;5011220;28;20121;-68
2022/10/23 11:34:01;;;;;;;7.53;3.90;;;27.10;99.90;;;;;;5024301;28;20554;-68
2022/10/23 11:36:49;;;;;;;5.85;3.33;;;27.20;99.90;;;;;;4993701;28;20113;-67
2022/10/23 11:39:28;;;;;;;6.28;3.42;;;27.20;99.90;;;;;;5015060;28;20103;-69
2022/10/23 11:41:57;;;;;;;6.20;3.70;;;26.90;99.90;;;;;;5015971;28;20045;-70
2022/10/23 11:44:39;;;;;;;6.47;3.75;;;27.00;99.90;;;;;;5011780;28;20482;-68
2022/10/23 11:47:35;;;;;;;5.07;3.33;;;27.00;99.90;;;;;;5010713;28;20454;-68
2022/10/23 11:50:10;;;;;;;5.72;3.55;;;27.00;99.90;;;;;;5024447;28;20402;-70
2022/10/23 11:52:59;;;;;;;7.25;3.85;;;26.80;99.90;;;;;;5030409;28;20139;-68
2022/10/23 11:55:28;;;;;;;5.05;3.65;;;26.70;99.90;;;;;;5011961;28;20030;-69
2022/10/23 11:58:04;;;;;;;5.65;3.67;;;26.70;99.90;;;;;;5000717;28;20034;-67
2022/10/23 12:00:32;;;;;;;6.78;3.70;;;26.70;99.90;;;;;;5030492;28;20049;-69
2022/10/23 12:03:00;;;;;;;9.15;3.33;;;26.80;99.90;;;;;;5027262;28;20026;-68
2022/10/23 12:05:40;;;;;;;5.28;3.70;;;26.80;99.90;;;;;;5017268;28;20049;-69
2022/10/23 12:08:29;;;;;;;6.50;3.58;;;26.80;99.90;;;;;;5028107;28;20494;-68
2022/10/23 12:10:55;;;;;;;5.13;3.55;;;26.70;99.90;;;;;;5015724;28;20061;-69
2022/10/23 12:13:33;;;;;;;7.78;4.05;;;26.60;99.90;;;;;;5021264;28;20510;-69
2022/10/23 12:16:01;;;;;;;9.45;3.80;;;26.80;99.90;;;;;;5011152;28;20097;-67
2022/10/23 12:18:28;;;;;;;5.43;3.75;;;26.80;99.90;;;;;;5025682;28;20022;-64
2022/10/23 12:20:59;;;;;;;6.13;4.18;;;27.00;99.90;;;;;;5015609;28;20124;-71
2022/10/23 12:23:54;;;;;;;9.00;3.72;;;27.00;99.90;;;;;;5011480;28;20091;-63
2022/10/23 12:26:44;;;;;;;7.20;3.63;;;27.10;99.90;;;;;;4990532;28;20054;-69
2022/10/23 12:29:30;;;;;;;5.40;3.58;;;26.80;99.90;;;;;;4991692;28;20070;-71
2022/10/23 12:32:24;;;;;;;7.88;3.55;;;26.80;99.90;;;;;;4956793;28;20034;-69
2022/10/23 12:35:23;;;;;;;5.53;3.38;;;26.80;99.90;;;;;;4990815;28;20059;-67
2022/10/23 12:37:55;;;;;;;6.13;3.70;;;26.50;99.90;;;;;;4975737;28;20475;-68
2022/10/23 12:40:28;;;;;;;5.72;3.67;;;26.50;99.90;;;;;;4990455;28;20034;-72
2022/10/23 12:42:57;;;;;;;6.32;3.63;;;26.40;99.90;;;;;;4968299;28;20085;-73
2022/10/23 12:45:47;;;;;;;6.30;3.15;;;26.30;99.90;;;;;;4992049;28;20042;-70
2022/10/23 12:48:21;;;;;;;7.05;3.90;;;26.40;99.90;;;;;;4974527;28;20074;-71
2022/10/23 12:50:56;;;;;;;8.68;4.03;;;26.40;99.90;;;;;;4968653;28;20066;-69
2022/10/23 12:53:23;;;;;;;7.72;3.78;;;26.40;99.90;;;;;;4979227;28;20499;-73
2022/10/23 12:55:59;;;;;;;7.93;3.70;;;26.50;99.90;;;;;;4986342;28;20042;-70
2022/10/23 12:58:30;;;;;;;7.95;3.67;;;26.50;99.90;;;;;;5022186;28;20081;-71
2022/10/23 13:01:02;;;;;;;5.50;3.60;;;26.60;99.90;;;;;;5012280;28;20017;-68
2022/10/23 13:03:31;;;;;;;5.80;3.55;;;26.60;99.90;;;;;;5011765;28;20050;-68
2022/10/23 13:06:01;;;;;;;5.78;3.85;;;26.60;99.90;;;;;;5012051;28;20704;-70
2022/10/23 13:08:41;;;;;;;8.82;3.53;;;26.50;99.90;;;;;;5013207;28;20034;-71
2022/10/23 13:11:15;;;;;;;8.10;3.55;;;26.10;99.90;;;;;;4994990;28;20033;-71
2022/10/23 13:13:41;;;;;;;6.78;3.70;;;26.30;99.90;;;;;;5012960;28;20374;-69
2022/10/23 13:16:22;;;;;;;7.60;3.60;;;26.40;99.90;;;;;;5019445;28;20577;-69